sensor_id;sensor_type;location;lat;lon;timestamp;temperature;humidity
53978;DHT22;39886;47.984;-1.586;2023-02-01T00:01:54;17.80;60.00
53978;DHT22;39886;47.984;-1.586;2023-02-01T00:04:20;17.80;60.00
53978;DHT22;39886;47.984;-1.586;2023-02-01T00:06:46;17.80;60.00
53978;DHT22;39886;47.984;-1.586;2023-02-01T00:09:12;17.70;60.00
53978;DHT22;39886;47.984;-1.586;2023-02-01T00:11:38;17.70;60.00
53978;DHT22;39886;47.984;-1.586;2023-02-01T00:14:04;17.70;60.00
53978;DHT22;39886;47.984;-1.586;2023-02-01T00:16:30;17.70;60.00
53978;DHT22;39886;47.984;-1.586;2023-02-01T00:19:09;17.70;60.00
53978;DHT22;39886;47.984;-1.586;2023-02-01T00:21:35;17.70;60.00
53978;DHT22;39886;47.984;-1.586;2023-02-01T00:24:01;17.70;60.00
53978;DHT22;39886;47.984;-1.586;2023-02-01T00:26:38;17.70;60.00
53978;DHT22;39886;47.984;-1.586;2023-02-01T00:29:07;17.70;60.00
53978;DHT22;39886;47.984;-1.586;2023-02-01T00:31:34;17.70;60.00
53978;DHT22;39886;47.984;-1.586;2023-02-01T00:34:00;17.70;60.00
53978;DHT22;39886;47.984;-1.586;2023-02-01T00:36:26;17.70;60.00
53978;DHT22;39886;47.984;-1.586;2023-02-01T00:38:51;17.70;60.00
53978;DHT22;39886;47.984;-1.586;2023-02-01T00:41:19;17.70;60.00
53978;DHT22;39886;47.984;-1.586;2023-02-01T00:43:46;17.70;60.00
53978;DHT22;39886;47.984;-1.586;2023-02-01T00:46:13;17.70;60.00
53978;DHT22;39886;47.984;-1.586;2023-02-01T00:48:39;17.70;60.00
53978;DHT22;39886;47.984;-1.586;2023-02-01T00:51:08;17.70;60.00
53978;DHT22;39886;47.984;-1.586;2023-02-01T00:53:34;17.60;60.00
53978;DHT22;39886;47.984;-1.586;2023-02-01T00:56:00;17.60;60.00
53978;DHT22;39886;47.984;-1.586;2023-02-01T00:58:27;17.60;60.00
53978;DHT22;39886;47.984;-1.586;2023-02-01T01:01:07;17.60;59.90
53978;DHT22;39886;47.984;-1.586;2023-02-01T01:03:39;17.60;60.00
53978;DHT22;39886;47.984;-1.586;2023-02-01T01:06:13;17.60;59.90
53978;DHT22;39886;47.984;-1.586;2023-02-01T01:08:40;17.60;60.00
53978;DHT22;39886;47.984;-1.586;2023-02-01T01:11:12;17.60;60.00
53978;DHT22;39886;47.984;-1.586;2023-02-01T01:13:39;17.60;60.00
53978;DHT22;39886;47.984;-1.586;2023-02-01T01:16:06;17.60;60.00
53978;DHT22;39886;47.984;-1.586;2023-02-01T01:18:33;17.60;60.00
53978;DHT22;39886;47.984;-1.586;2023-02-01T01:20:59;17.60;59.90
53978;DHT22;39886;47.984;-1.586;2023-02-01T01:23:25;17.60;59.90
53978;DHT22;39886;47.984;-1.586;2023-02-01T01:25:52;17.60;59.90
53978;DHT22;39886;47.984;-1.586;2023-02-01T01:28:17;17.60;60.00
53978;DHT22;39886;47.984;-1.586;2023-02-01T01:30:43;17.60;59.90
53978;DHT22;39886;47.984;-1.586;2023-02-01T01:33:09;17.60;60.00
53978;DHT22;39886;47.984;-1.586;2023-02-01T01:35:35;17.60;59.90
53978;DHT22;39886;47.984;-1.586;2023-02-01T01:38:02;17.50;59.90
53978;DHT22;39886;47.984;-1.586;2023-02-01T01:40:28;17.60;59.90
53978;DHT22;39886;47.984;-1.586;2023-02-01T01:42:54;17.60;60.00
53978;DHT22;39886;47.984;-1.586;2023-02-01T01:45:24;17.50;59.90
53978;DHT22;39886;47.984;-1.586;2023-02-01T01:47:58;17.50;59.90
53978;DHT22;39886;47.984;-1.586;2023-02-01T01:50:31;17.50;59.90
53978;DHT22;39886;47.984;-1.586;2023-02-01T01:53:01;17.50;59.90
53978;DHT22;39886;47.984;-1.586;2023-02-01T01:55:32;17.50;59.90
53978;DHT22;39886;47.984;-1.586;2023-02-01T01:58:02;17.50;59.90
53978;DHT22;39886;47.984;-1.586;2023-02-01T02:00:31;17.50;59.90
53978;DHT22;39886;47.984;-1.586;2023-02-01T02:03:06;17.50;59.90
53978;DHT22;39886;47.984;-1.586;2023-02-01T02:05:34;17.50;59.90
53978;DHT22;39886;47.984;-1.586;2023-02-01T02:08:00;17.50;59.90
53978;DHT22;39886;47.984;-1.586;2023-02-01T02:10:27;17.50;59.90
53978;DHT22;39886;47.984;-1.586;2023-02-01T02:13:14;17.50;59.90
53978;DHT22;39886;47.984;-1.586;2023-02-01T02:38:05;17.50;59.90
53978;DHT22;39886;47.984;-1.586;2023-02-01T02:43:22;17.50;59.90
53978;DHT22;39886;47.984;-1.586;2023-02-01T02:46:26;17.50;59.90
53978;DHT22;39886;47.984;-1.586;2023-02-01T02:49:20;17.40;59.80
53978;DHT22;39886;47.984;-1.586;2023-02-01T02:51:58;17.40;59.80
53978;DHT22;39886;47.984;-1.586;2023-02-01T02:54:47;17.40;59.80
53978;DHT22;39886;47.984;-1.586;2023-02-01T03:00:21;17.40;59.80
53978;DHT22;39886;47.984;-1.586;2023-02-01T03:03:07;17.40;59.80
53978;DHT22;39886;47.984;-1.586;2023-02-01T03:05:51;17.40;59.80
53978;DHT22;39886;47.984;-1.586;2023-02-01T03:08:27;17.40;59.80
53978;DHT22;39886;47.984;-1.586;2023-02-01T03:11:08;17.40;59.90
53978;DHT22;39886;47.984;-1.586;2023-02-01T03:13:54;17.40;59.80
53978;DHT22;39886;47.984;-1.586;2023-02-01T03:16:58;17.40;59.80
53978;DHT22;39886;47.984;-1.586;2023-02-01T03:19:33;17.40;59.80
53978;DHT22;39886;47.984;-1.586;2023-02-01T03:22:01;17.40;59.80
53978;DHT22;39886;47.984;-1.586;2023-02-01T03:24:56;17.40;59.80
53978;DHT22;39886;47.984;-1.586;2023-02-01T03:30:17;17.30;59.80
53978;DHT22;39886;47.984;-1.586;2023-02-01T03:32:47;17.40;59.80
53978;DHT22;39886;47.984;-1.586;2023-02-01T03:35:45;17.30;59.70
53978;DHT22;39886;47.984;-1.586;2023-02-01T03:38:20;17.30;59.70
53978;DHT22;39886;47.984;-1.586;2023-02-01T03:40:52;17.40;59.80
53978;DHT22;39886;47.984;-1.586;2023-02-01T03:43:20;17.40;59.80
53978;DHT22;39886;47.984;-1.586;2023-02-01T03:45:52;17.30;59.70
53978;DHT22;39886;47.984;-1.586;2023-02-01T03:48:22;17.40;59.60
53978;DHT22;39886;47.984;-1.586;2023-02-01T03:50:51;17.50;59.30
53978;DHT22;39886;47.984;-1.586;2023-02-01T03:53:19;17.60;59.10
53978;DHT22;39886;47.984;-1.586;2023-02-01T03:55:46;17.70;58.80
53978;DHT22;39886;47.984;-1.586;2023-02-01T03:58:20;17.80;58.70
53978;DHT22;39886;47.984;-1.586;2023-02-01T04:00:53;17.80;58.50
53978;DHT22;39886;47.984;-1.586;2023-02-01T04:03:20;17.90;58.30
53978;DHT22;39886;47.984;-1.586;2023-02-01T04:05:50;18.00;58.20
53978;DHT22;39886;47.984;-1.586;2023-02-01T04:08:16;18.10;58.00
53978;DHT22;39886;47.984;-1.586;2023-02-01T04:10:41;18.20;57.90
53978;DHT22;39886;47.984;-1.586;2023-02-01T04:13:07;18.20;57.80
53978;DHT22;39886;47.984;-1.586;2023-02-01T04:15:33;18.30;57.70
53978;DHT22;39886;47.984;-1.586;2023-02-01T04:18:00;18.30;57.60
53978;DHT22;39886;47.984;-1.586;2023-02-01T04:20:26;18.40;57.50
53978;DHT22;39886;47.984;-1.586;2023-02-01T04:22:52;18.40;57.40
53978;DHT22;39886;47.984;-1.586;2023-02-01T04:25:18;18.50;57.40
53978;DHT22;39886;47.984;-1.586;2023-02-01T04:27:44;18.50;57.30
53978;DHT22;39886;47.984;-1.586;2023-02-01T04:30:10;18.50;57.10
53978;DHT22;39886;47.984;-1.586;2023-02-01T04:32:37;18.60;57.10
53978;DHT22;39886;47.984;-1.586;2023-02-01T04:35:03;18.60;57.00
53978;DHT22;39886;47.984;-1.586;2023-02-01T04:37:29;18.70;57.00
53978;DHT22;39886;47.984;-1.586;2023-02-01T04:39:55;18.70;56.90
53978;DHT22;39886;47.984;-1.586;2023-02-01T04:42:21;18.80;56.80
53978;DHT22;39886;47.984;-1.586;2023-02-01T04:44:47;18.80;56.70
53978;DHT22;39886;47.984;-1.586;2023-02-01T04:47:13;18.90;56.70
53978;DHT22;39886;47.984;-1.586;2023-02-01T04:49:39;18.90;56.60
53978;DHT22;39886;47.984;-1.586;2023-02-01T04:52:05;18.90;56.50
53978;DHT22;39886;47.984;-1.586;2023-02-01T04:54:31;19.00;56.40
53978;DHT22;39886;47.984;-1.586;2023-02-01T04:56:57;19.00;56.30
53978;DHT22;39886;47.984;-1.586;2023-02-01T04:59:22;19.00;56.30
53978;DHT22;39886;47.984;-1.586;2023-02-01T05:01:48;19.10;56.20
53978;DHT22;39886;47.984;-1.586;2023-02-01T05:04:14;19.10;56.10
53978;DHT22;39886;47.984;-1.586;2023-02-01T05:06:40;19.10;56.00
53978;DHT22;39886;47.984;-1.586;2023-02-01T05:09:05;19.10;56.00
53978;DHT22;39886;47.984;-1.586;2023-02-01T05:11:31;19.20;56.00
53978;DHT22;39886;47.984;-1.586;2023-02-01T05:14:15;19.20;55.90
53978;DHT22;39886;47.984;-1.586;2023-02-01T05:16:41;19.30;55.90
53978;DHT22;39886;47.984;-1.586;2023-02-01T05:19:07;19.30;55.80
53978;DHT22;39886;47.984;-1.586;2023-02-01T05:21:32;19.30;55.70
53978;DHT22;39886;47.984;-1.586;2023-02-01T05:23:58;19.30;55.60
53978;DHT22;39886;47.984;-1.586;2023-02-01T05:26:41;19.40;55.60
53978;DHT22;39886;47.984;-1.586;2023-02-01T05:29:08;19.40;55.60
53978;DHT22;39886;47.984;-1.586;2023-02-01T05:31:34;19.40;55.40
53978;DHT22;39886;47.984;-1.586;2023-02-01T05:34:00;19.50;55.40
53978;DHT22;39886;47.984;-1.586;2023-02-01T05:36:26;19.50;55.40
53978;DHT22;39886;47.984;-1.586;2023-02-01T05:38:52;19.50;55.30
53978;DHT22;39886;47.984;-1.586;2023-02-01T05:41:17;19.50;55.30
53978;DHT22;39886;47.984;-1.586;2023-02-01T05:43:43;19.60;55.30
53978;DHT22;39886;47.984;-1.586;2023-02-01T05:46:09;19.60;55.20
53978;DHT22;39886;47.984;-1.586;2023-02-01T05:48:41;19.60;55.10
53978;DHT22;39886;47.984;-1.586;2023-02-01T05:51:07;19.60;55.10
53978;DHT22;39886;47.984;-1.586;2023-02-01T05:53:33;19.60;55.00
53978;DHT22;39886;47.984;-1.586;2023-02-01T05:55:59;19.60;54.90
53978;DHT22;39886;47.984;-1.586;2023-02-01T05:58:25;19.70;55.00
53978;DHT22;39886;47.984;-1.586;2023-02-01T06:00:51;19.70;54.90
53978;DHT22;39886;47.984;-1.586;2023-02-01T06:03:16;19.70;54.80
53978;DHT22;39886;47.984;-1.586;2023-02-01T06:05:47;19.80;54.80
53978;DHT22;39886;47.984;-1.586;2023-02-01T06:08:13;19.80;54.80
53978;DHT22;39886;47.984;-1.586;2023-02-01T06:10:39;19.80;54.70
53978;DHT22;39886;47.984;-1.586;2023-02-01T06:13:05;19.80;54.70
53978;DHT22;39886;47.984;-1.586;2023-02-01T06:15:31;19.80;54.60
53978;DHT22;39886;47.984;-1.586;2023-02-01T06:17:58;19.90;54.60
53978;DHT22;39886;47.984;-1.586;2023-02-01T06:20:23;19.90;54.60
53978;DHT22;39886;47.984;-1.586;2023-02-01T06:22:49;19.80;54.40
53978;DHT22;39886;47.984;-1.586;2023-02-01T06:25:15;19.90;55.00
53978;DHT22;39886;47.984;-1.586;2023-02-01T06:27:42;19.90;54.40
53978;DHT22;39886;47.984;-1.586;2023-02-01T06:30:08;19.90;54.30
53978;DHT22;39886;47.984;-1.586;2023-02-01T06:32:34;19.90;54.30
53978;DHT22;39886;47.984;-1.586;2023-02-01T06:35:00;20.00;54.20
53978;DHT22;39886;47.984;-1.586;2023-02-01T06:37:26;20.00;54.80
53978;DHT22;39886;47.984;-1.586;2023-02-01T06:39:53;20.00;54.10
53978;DHT22;39886;47.984;-1.586;2023-02-01T06:42:18;20.00;54.70
53978;DHT22;39886;47.984;-1.586;2023-02-01T06:44:44;20.00;54.00
53978;DHT22;39886;47.984;-1.586;2023-02-01T06:47:10;20.10;54.00
53978;DHT22;39886;47.984;-1.586;2023-02-01T06:49:36;20.10;54.10
53978;DHT22;39886;47.984;-1.586;2023-02-01T06:52:02;20.10;54.00
53978;DHT22;39886;47.984;-1.586;2023-02-01T06:54:28;20.10;53.80
53978;DHT22;39886;47.984;-1.586;2023-02-01T06:56:53;20.10;53.80
53978;DHT22;39886;47.984;-1.586;2023-02-01T06:59:19;20.20;53.90
53978;DHT22;39886;47.984;-1.586;2023-02-01T07:01:45;20.20;53.90
53978;DHT22;39886;47.984;-1.586;2023-02-01T07:04:14;20.20;53.80
53978;DHT22;39886;47.984;-1.586;2023-02-01T07:06:39;20.20;53.80
53978;DHT22;39886;47.984;-1.586;2023-02-01T07:09:06;20.20;53.70
53978;DHT22;39886;47.984;-1.586;2023-02-01T07:11:32;20.20;53.80
53978;DHT22;39886;47.984;-1.586;2023-02-01T07:13:58;20.30;53.70
53978;DHT22;39886;47.984;-1.586;2023-02-01T07:16:24;20.30;53.70
53978;DHT22;39886;47.984;-1.586;2023-02-01T07:18:51;20.30;53.70
53978;DHT22;39886;47.984;-1.586;2023-02-01T07:21:17;20.30;53.70
53978;DHT22;39886;47.984;-1.586;2023-02-01T07:23:43;20.30;53.70
53978;DHT22;39886;47.984;-1.586;2023-02-01T07:26:11;20.30;53.70
53978;DHT22;39886;47.984;-1.586;2023-02-01T07:28:38;20.30;53.60
53978;DHT22;39886;47.984;-1.586;2023-02-01T07:31:06;20.30;53.50
53978;DHT22;39886;47.984;-1.586;2023-02-01T07:33:32;20.30;53.60
53978;DHT22;39886;47.984;-1.586;2023-02-01T07:36:01;20.30;53.60
53978;DHT22;39886;47.984;-1.586;2023-02-01T07:38:27;20.40;53.60
53978;DHT22;39886;47.984;-1.586;2023-02-01T07:40:58;20.40;53.50
53978;DHT22;39886;47.984;-1.586;2023-02-01T07:43:24;20.40;53.40
53978;DHT22;39886;47.984;-1.586;2023-02-01T07:45:53;20.40;53.50
53978;DHT22;39886;47.984;-1.586;2023-02-01T07:48:20;20.50;53.40
53978;DHT22;39886;47.984;-1.586;2023-02-01T07:50:46;20.50;53.60
53978;DHT22;39886;47.984;-1.586;2023-02-01T07:53:12;20.50;53.60
53978;DHT22;39886;47.984;-1.586;2023-02-01T07:55:38;20.50;53.50
53978;DHT22;39886;47.984;-1.586;2023-02-01T07:58:04;20.50;53.50
53978;DHT22;39886;47.984;-1.586;2023-02-01T08:00:30;20.50;53.40
53978;DHT22;39886;47.984;-1.586;2023-02-01T08:03:14;20.50;53.40
53978;DHT22;39886;47.984;-1.586;2023-02-01T08:05:40;20.60;53.40
53978;DHT22;39886;47.984;-1.586;2023-02-01T08:08:06;20.60;53.50
53978;DHT22;39886;47.984;-1.586;2023-02-01T08:10:32;20.60;53.60
53978;DHT22;39886;47.984;-1.586;2023-02-01T08:12:59;20.60;53.60
53978;DHT22;39886;47.984;-1.586;2023-02-01T08:15:26;20.60;53.70
53978;DHT22;39886;47.984;-1.586;2023-02-01T08:17:52;20.70;53.70
53978;DHT22;39886;47.984;-1.586;2023-02-01T08:20:20;20.70;53.70
53978;DHT22;39886;47.984;-1.586;2023-02-01T08:22:50;20.70;53.80
53978;DHT22;39886;47.984;-1.586;2023-02-01T08:25:16;20.70;53.70
53978;DHT22;39886;47.984;-1.586;2023-02-01T08:27:42;20.70;53.80
53978;DHT22;39886;47.984;-1.586;2023-02-01T08:30:09;20.80;53.90
53978;DHT22;39886;47.984;-1.586;2023-02-01T08:32:35;20.80;53.90
53978;DHT22;39886;47.984;-1.586;2023-02-01T08:35:01;20.80;53.70
53978;DHT22;39886;47.984;-1.586;2023-02-01T08:37:27;20.80;54.00
53978;DHT22;39886;47.984;-1.586;2023-02-01T08:39:53;20.80;54.00
53978;DHT22;39886;47.984;-1.586;2023-02-01T08:42:19;20.90;54.00
53978;DHT22;39886;47.984;-1.586;2023-02-01T08:45:04;20.90;54.20
53978;DHT22;39886;47.984;-1.586;2023-02-01T08:47:30;20.90;54.20
53978;DHT22;39886;47.984;-1.586;2023-02-01T08:49:56;20.90;54.00
53978;DHT22;39886;47.984;-1.586;2023-02-01T08:52:22;21.00;54.10
53978;DHT22;39886;47.984;-1.586;2023-02-01T08:54:48;21.00;54.20
53978;DHT22;39886;47.984;-1.586;2023-02-01T08:57:14;21.00;54.20
53978;DHT22;39886;47.984;-1.586;2023-02-01T08:59:40;21.00;54.20
53978;DHT22;39886;47.984;-1.586;2023-02-01T09:02:07;21.00;54.30
53978;DHT22;39886;47.984;-1.586;2023-02-01T09:04:33;21.00;54.10
53978;DHT22;39886;47.984;-1.586;2023-02-01T09:06:59;21.00;54.20
53978;DHT22;39886;47.984;-1.586;2023-02-01T09:09:27;21.10;54.20
53978;DHT22;39886;47.984;-1.586;2023-02-01T09:11:53;21.10;54.10
53978;DHT22;39886;47.984;-1.586;2023-02-01T09:14:18;21.10;54.10
53978;DHT22;39886;47.984;-1.586;2023-02-01T09:16:44;21.10;54.10
53978;DHT22;39886;47.984;-1.586;2023-02-01T09:19:10;21.20;54.30
53978;DHT22;39886;47.984;-1.586;2023-02-01T09:21:36;21.20;54.30
53978;DHT22;39886;47.984;-1.586;2023-02-01T09:24:02;21.20;54.30
53978;DHT22;39886;47.984;-1.586;2023-02-01T09:26:29;21.20;54.30
53978;DHT22;39886;47.984;-1.586;2023-02-01T09:28:55;21.20;54.10
53978;DHT22;39886;47.984;-1.586;2023-02-01T09:31:21;21.20;54.10
53978;DHT22;39886;47.984;-1.586;2023-02-01T09:33:46;21.20;54.00
53978;DHT22;39886;47.984;-1.586;2023-02-01T09:36:12;21.30;54.00
53978;DHT22;39886;47.984;-1.586;2023-02-01T09:38:38;21.30;54.10
53978;DHT22;39886;47.984;-1.586;2023-02-01T09:46:31;21.40;54.10
53978;DHT22;39886;47.984;-1.586;2023-02-01T09:49:01;21.40;54.00
53978;DHT22;39886;47.984;-1.586;2023-02-01T09:51:38;21.40;54.00
53978;DHT22;39886;47.984;-1.586;2023-02-01T09:56:48;21.40;54.00
53978;DHT22;39886;47.984;-1.586;2023-02-01T09:59:46;21.50;54.10
53978;DHT22;39886;47.984;-1.586;2023-02-01T10:02:25;21.50;54.10
53978;DHT22;39886;47.984;-1.586;2023-02-01T10:04:55;21.50;54.30
53978;DHT22;39886;47.984;-1.586;2023-02-01T10:21:09;21.60;54.50
53978;DHT22;39886;47.984;-1.586;2023-02-01T10:28:50;21.70;54.40
53978;DHT22;39886;47.984;-1.586;2023-02-01T10:31:17;21.70;54.50
53978;DHT22;39886;47.984;-1.586;2023-02-01T10:33:46;21.70;54.40
53978;DHT22;39886;47.984;-1.586;2023-02-01T10:36:23;21.70;54.40
53978;DHT22;39886;47.984;-1.586;2023-02-01T10:38:53;21.70;54.50
53978;DHT22;39886;47.984;-1.586;2023-02-01T10:41:22;21.70;54.60
53978;DHT22;39886;47.984;-1.586;2023-02-01T10:43:54;21.60;54.80
53978;DHT22;39886;47.984;-1.586;2023-02-01T10:46:25;21.50;55.00
53978;DHT22;39886;47.984;-1.586;2023-02-01T10:48:55;21.50;55.30
53978;DHT22;39886;47.984;-1.586;2023-02-01T10:51:26;21.40;55.40
53978;DHT22;39886;47.984;-1.586;2023-02-01T10:53:58;21.30;55.50
53978;DHT22;39886;47.984;-1.586;2023-02-01T10:56:28;21.30;55.50
53978;DHT22;39886;47.984;-1.586;2023-02-01T10:59:23;21.20;55.60
53978;DHT22;39886;47.984;-1.586;2023-02-01T11:01:50;21.20;55.60
53978;DHT22;39886;47.984;-1.586;2023-02-01T11:04:18;21.10;56.00
53978;DHT22;39886;47.984;-1.586;2023-02-01T11:07:01;21.10;56.10
53978;DHT22;39886;47.984;-1.586;2023-02-01T11:09:31;21.00;55.80
53978;DHT22;39886;47.984;-1.586;2023-02-01T11:11:59;21.00;56.10
53978;DHT22;39886;47.984;-1.586;2023-02-01T11:16:57;20.90;56.10
53978;DHT22;39886;47.984;-1.586;2023-02-01T11:19:23;20.80;56.10
53978;DHT22;39886;47.984;-1.586;2023-02-01T11:21:59;20.80;56.10
53978;DHT22;39886;47.984;-1.586;2023-02-01T11:24:36;20.80;56.10
53978;DHT22;39886;47.984;-1.586;2023-02-01T11:27:05;20.80;56.30
53978;DHT22;39886;47.984;-1.586;2023-02-01T11:29:43;20.70;56.10
53978;DHT22;39886;47.984;-1.586;2023-02-01T11:32:12;20.70;56.30
53978;DHT22;39886;47.984;-1.586;2023-02-01T11:34:52;20.70;56.40
53978;DHT22;39886;47.984;-1.586;2023-02-01T11:37:34;20.60;56.30
53978;DHT22;39886;47.984;-1.586;2023-02-01T11:40:03;20.60;56.40
53978;DHT22;39886;47.984;-1.586;2023-02-01T11:42:30;20.60;56.40
53978;DHT22;39886;47.984;-1.586;2023-02-01T11:45:17;20.50;56.50
53978;DHT22;39886;47.984;-1.586;2023-02-01T11:47:43;20.50;56.50
53978;DHT22;39886;47.984;-1.586;2023-02-01T11:50:21;20.40;56.50
53978;DHT22;39886;47.984;-1.586;2023-02-01T11:56:11;20.40;56.60
53978;DHT22;39886;47.984;-1.586;2023-02-01T12:10:28;20.20;56.80
53978;DHT22;39886;47.984;-1.586;2023-02-01T12:13:13;20.20;56.90
53978;DHT22;39886;47.984;-1.586;2023-02-01T12:29:38;20.00;57.70
53978;DHT22;39886;47.984;-1.586;2023-02-01T12:32:20;20.00;57.00
53978;DHT22;39886;47.984;-1.586;2023-02-01T12:35:03;19.90;57.00
53978;DHT22;39886;47.984;-1.586;2023-02-01T12:43:12;19.90;57.00
53978;DHT22;39886;47.984;-1.586;2023-02-01T12:45:47;19.80;57.00
53978;DHT22;39886;47.984;-1.586;2023-02-01T12:48:35;19.80;57.00
53978;DHT22;39886;47.984;-1.586;2023-02-01T12:51:07;19.90;56.90
53978;DHT22;39886;47.984;-1.586;2023-02-01T12:53:50;20.00;56.50
53978;DHT22;39886;47.984;-1.586;2023-02-01T12:58:52;20.20;56.10
53978;DHT22;39886;47.984;-1.586;2023-02-01T13:01:26;20.30;56.10
53978;DHT22;39886;47.984;-1.586;2023-02-01T13:04:15;20.30;55.70
53978;DHT22;39886;47.984;-1.586;2023-02-01T13:07:04;20.50;55.80
53978;DHT22;39886;47.984;-1.586;2023-02-01T13:10:01;20.50;55.60
53978;DHT22;39886;47.984;-1.586;2023-02-01T13:12:40;20.50;55.60
53978;DHT22;39886;47.984;-1.586;2023-02-01T13:15:26;20.60;55.40
53978;DHT22;39886;47.984;-1.586;2023-02-01T13:17:55;20.70;55.40
53978;DHT22;39886;47.984;-1.586;2023-02-01T13:20:30;20.70;55.50
53978;DHT22;39886;47.984;-1.586;2023-02-01T13:23:05;20.80;55.40
53978;DHT22;39886;47.984;-1.586;2023-02-01T13:25:46;20.80;55.20
53978;DHT22;39886;47.984;-1.586;2023-02-01T13:33:40;20.90;55.10
53978;DHT22;39886;47.984;-1.586;2023-02-01T13:36:12;21.00;55.10
53978;DHT22;39886;47.984;-1.586;2023-02-01T13:41:30;21.10;55.10
53978;DHT22;39886;47.984;-1.586;2023-02-01T13:44:04;21.10;55.20
53978;DHT22;39886;47.984;-1.586;2023-02-01T13:46:43;21.10;55.10
53978;DHT22;39886;47.984;-1.586;2023-02-01T13:49:24;21.10;55.10
53978;DHT22;39886;47.984;-1.586;2023-02-01T13:51:56;21.20;55.10
53978;DHT22;39886;47.984;-1.586;2023-02-01T13:56:53;21.30;55.10
53978;DHT22;39886;47.984;-1.586;2023-02-01T14:05:08;21.20;55.40
53978;DHT22;39886;47.984;-1.586;2023-02-01T14:07:34;21.20;55.50
53978;DHT22;39886;47.984;-1.586;2023-02-01T14:16:16;20.90;56.00
53978;DHT22;39886;47.984;-1.586;2023-02-01T14:21:33;20.80;56.40
53978;DHT22;39886;47.984;-1.586;2023-02-01T14:26:49;20.70;56.50
53978;DHT22;39886;47.984;-1.586;2023-02-01T14:39:49;20.40;56.80
53978;DHT22;39886;47.984;-1.586;2023-02-01T14:47:51;20.40;57.10
53978;DHT22;39886;47.984;-1.586;2023-02-01T14:55:44;20.30;57.50
53978;DHT22;39886;47.984;-1.586;2023-02-01T14:58:43;20.20;57.50
53978;DHT22;39886;47.984;-1.586;2023-02-01T15:03:58;20.20;57.70
53978;DHT22;39886;47.984;-1.586;2023-02-01T15:06:27;20.20;57.70
53978;DHT22;39886;47.984;-1.586;2023-02-01T15:09:03;20.10;57.90
53978;DHT22;39886;47.984;-1.586;2023-02-01T15:11:29;20.10;57.80
53978;DHT22;39886;47.984;-1.586;2023-02-01T15:13:55;20.10;57.80
53978;DHT22;39886;47.984;-1.586;2023-02-01T15:16:24;20.10;57.80
53978;DHT22;39886;47.984;-1.586;2023-02-01T15:18:57;20.10;58.00
53978;DHT22;39886;47.984;-1.586;2023-02-01T15:21:31;20.00;57.90
53978;DHT22;39886;47.984;-1.586;2023-02-01T15:24:17;20.00;57.90
53978;DHT22;39886;47.984;-1.586;2023-02-01T15:26:44;20.00;57.90
53978;DHT22;39886;47.984;-1.586;2023-02-01T15:29:13;20.00;58.00
53978;DHT22;39886;47.984;-1.586;2023-02-01T15:31:45;20.00;58.10
53978;DHT22;39886;47.984;-1.586;2023-02-01T15:34:11;19.90;58.10
53978;DHT22;39886;47.984;-1.586;2023-02-01T15:36:38;19.90;58.10
53978;DHT22;39886;47.984;-1.586;2023-02-01T15:41:48;19.90;58.30
53978;DHT22;39886;47.984;-1.586;2023-02-01T15:44:37;19.90;58.50
53978;DHT22;39886;47.984;-1.586;2023-02-01T15:47:12;19.90;58.50
53978;DHT22;39886;47.984;-1.586;2023-02-01T15:49:40;19.90;58.60
53978;DHT22;39886;47.984;-1.586;2023-02-01T15:54:49;19.90;58.40
53978;DHT22;39886;47.984;-1.586;2023-02-01T15:57:28;20.00;58.50
53978;DHT22;39886;47.984;-1.586;2023-02-01T15:59:58;20.10;58.20
53978;DHT22;39886;47.984;-1.586;2023-02-01T16:02:42;20.20;58.10
53978;DHT22;39886;47.984;-1.586;2023-02-01T16:05:34;20.30;57.80
53978;DHT22;39886;47.984;-1.586;2023-02-01T16:08:14;20.30;57.80
53978;DHT22;39886;47.984;-1.586;2023-02-01T16:10:45;20.40;57.70
53978;DHT22;39886;47.984;-1.586;2023-02-01T16:13:13;20.40;57.70
53978;DHT22;39886;47.984;-1.586;2023-02-01T16:15:39;20.50;57.50
53978;DHT22;39886;47.984;-1.586;2023-02-01T16:18:06;20.60;57.40
53978;DHT22;39886;47.984;-1.586;2023-02-01T16:20:34;20.60;57.40
53978;DHT22;39886;47.984;-1.586;2023-02-01T16:23:04;20.70;57.30
53978;DHT22;39886;47.984;-1.586;2023-02-01T16:25:30;20.70;57.30
53978;DHT22;39886;47.984;-1.586;2023-02-01T16:27:56;20.80;57.30
53978;DHT22;39886;47.984;-1.586;2023-02-01T16:30:22;20.80;57.10
53978;DHT22;39886;47.984;-1.586;2023-02-01T16:33:01;20.80;57.30
53978;DHT22;39886;47.984;-1.586;2023-02-01T16:35:35;20.80;57.20
53978;DHT22;39886;47.984;-1.586;2023-02-01T16:38:08;20.90;57.10
53978;DHT22;39886;47.984;-1.586;2023-02-01T16:40:38;20.90;57.70
53978;DHT22;39886;47.984;-1.586;2023-02-01T16:43:15;20.90;57.00
53978;DHT22;39886;47.984;-1.586;2023-02-01T16:45:42;21.00;56.80
53978;DHT22;39886;47.984;-1.586;2023-02-01T16:48:35;21.00;56.90
53978;DHT22;39886;47.984;-1.586;2023-02-01T16:51:07;21.10;56.80
53978;DHT22;39886;47.984;-1.586;2023-02-01T16:53:34;21.10;56.70
53978;DHT22;39886;47.984;-1.586;2023-02-01T16:55:59;21.10;56.40
53978;DHT22;39886;47.984;-1.586;2023-02-01T16:58:26;21.10;56.60
53978;DHT22;39886;47.984;-1.586;2023-02-01T17:00:52;21.10;56.60
53978;DHT22;39886;47.984;-1.586;2023-02-01T17:03:19;21.10;56.50
53978;DHT22;39886;47.984;-1.586;2023-02-01T17:05:56;21.20;56.40
53978;DHT22;39886;47.984;-1.586;2023-02-01T17:08:37;21.20;56.40
53978;DHT22;39886;47.984;-1.586;2023-02-01T17:11:05;21.20;56.30
53978;DHT22;39886;47.984;-1.586;2023-02-01T17:13:31;21.20;56.20
53978;DHT22;39886;47.984;-1.586;2023-02-01T17:16:03;21.30;56.30
53978;DHT22;39886;47.984;-1.586;2023-02-01T17:18:33;21.30;56.30
53978;DHT22;39886;47.984;-1.586;2023-02-01T17:21:00;21.30;56.20
53978;DHT22;39886;47.984;-1.586;2023-02-01T17:23:28;21.30;56.20
53978;DHT22;39886;47.984;-1.586;2023-02-01T17:25:54;21.30;56.10
53978;DHT22;39886;47.984;-1.586;2023-02-01T17:28:20;21.40;56.20
53978;DHT22;39886;47.984;-1.586;2023-02-01T17:30:46;21.40;56.10
53978;DHT22;39886;47.984;-1.586;2023-02-01T17:33:25;21.40;56.10
53978;DHT22;39886;47.984;-1.586;2023-02-01T17:35:53;21.40;56.20
53978;DHT22;39886;47.984;-1.586;2023-02-01T17:38:19;21.30;56.50
53978;DHT22;39886;47.984;-1.586;2023-02-01T17:40:45;21.20;56.80
53978;DHT22;39886;47.984;-1.586;2023-02-01T17:43:20;21.10;56.90
53978;DHT22;39886;47.984;-1.586;2023-02-01T17:48:17;21.00;57.20
53978;DHT22;39886;47.984;-1.586;2023-02-01T17:50:43;20.90;57.30
53978;DHT22;39886;47.984;-1.586;2023-02-01T17:53:11;20.80;57.40
53978;DHT22;39886;47.984;-1.586;2023-02-01T17:55:42;20.80;57.50
53978;DHT22;39886;47.984;-1.586;2023-02-01T17:58:13;20.70;57.70
53978;DHT22;39886;47.984;-1.586;2023-02-01T18:00:40;20.60;58.40
53978;DHT22;39886;47.984;-1.586;2023-02-01T18:03:20;20.60;57.90
53978;DHT22;39886;47.984;-1.586;2023-02-01T18:05:51;20.50;57.90
53978;DHT22;39886;47.984;-1.586;2023-02-01T18:08:25;20.50;58.00
53978;DHT22;39886;47.984;-1.586;2023-02-01T18:10:55;20.40;58.00
53978;DHT22;39886;47.984;-1.586;2023-02-01T18:13:24;20.40;58.10